sensor_id;sensor_type;location;lat;lon;timestamp;pressure;altitude;pressure_sealevel;temperature
6454;BMP180;3260;52.438;13.502;2023-11-19T10:19:42;99826.00;;;10.00
6454;BMP180;3260;52.438;13.502;2023-11-19T10:22:10;99832.00;;;10.20
6454;BMP180;3260;52.438;13.502;2023-11-19T10:24:41;99832.00;;;10.30
6454;BMP180;3260;52.438;13.502;2023-11-19T10:27:15;99843.00;;;10.30
6454;BMP180;3260;52.438;13.502;2023-11-19T10:29:44;99824.00;;;10.60
6454;BMP180;3260;52.438;13.502;2023-11-19T10:32:13;99823.00;;;10.90
6454;BMP180;3260;52.438;13.502;2023-11-19T10:35:05;99844.00;;;11.00
6454;BMP180;3260;52.438;13.502;2023-11-19T10:37:34;99823.00;;;11.10
6454;BMP180;3260;52.438;13.502;2023-11-19T10:40:05;99826.00;;;11.70
6454;BMP180;3260;52.438;13.502;2023-11-19T10:42:37;99824.00;;;11.90
6454;BMP180;3260;52.438;13.502;2023-11-19T10:45:06;99838.00;;;12.20
6454;BMP180;3260;52.438;13.502;2023-11-19T10:47:49;99827.00;;;12.00
6454;BMP180;3260;52.438;13.502;2023-11-19T10:50:19;99817.00;;;12.20
6454;BMP180;3260;52.438;13.502;2023-11-19T10:52:48;99812.00;;;12.10
6454;BMP180;3260;52.438;13.502;2023-11-19T10:55:16;99809.00;;;12.10
6454;BMP180;3260;52.438;13.502;2023-11-19T10:57:47;99803.00;;;13.00
6454;BMP180;3260;52.438;13.502;2023-11-19T11:00:17;99800.00;;;13.10
6454;BMP180;3260;52.438;13.502;2023-11-19T11:02:48;99807.00;;;12.90
6454;BMP180;3260;52.438;13.502;2023-11-19T11:05:20;99799.00;;;12.40
6454;BMP180;3260;52.438;13.502;2023-11-19T11:07:51;99808.00;;;12.30
6454;BMP180;3260;52.438;13.502;2023-11-19T11:10:20;99794.00;;;12.50
6454;BMP180;3260;52.438;13.502;2023-11-19T11:12:53;99797.00;;;12.40
6454;BMP180;3260;52.438;13.502;2023-11-19T11:15:26;99801.00;;;12.20
6454;BMP180;3260;52.438;13.502;2023-11-19T11:17:57;99800.00;;;12.10
6454;BMP180;3260;52.438;13.502;2023-11-19T11:20:27;99798.00;;;11.80
6454;BMP180;3260;52.438;13.502;2023-11-19T11:23:00;99808.00;;;11.70
6454;BMP180;3260;52.438;13.502;2023-11-19T11:25:32;99802.00;;;11.80
6454;BMP180;3260;52.438;13.502;2023-11-19T11:28:07;99799.00;;;11.60
6454;BMP180;3260;52.438;13.502;2023-11-19T11:30:40;99819.00;;;11.90
6454;BMP180;3260;52.438;13.502;2023-11-19T11:33:19;99803.00;;;11.70
6454;BMP180;3260;52.438;13.502;2023-11-19T11:35:55;99817.00;;;11.90
6454;BMP180;3260;52.438;13.502;2023-11-19T11:38:28;99811.00;;;12.00
6454;BMP180;3260;52.438;13.502;2023-11-19T11:41:14;99805.00;;;12.40
6454;BMP180;3260;52.438;13.502;2023-11-19T11:43:45;99810.00;;;12.30
6454;BMP180;3260;52.438;13.502;2023-11-19T11:49:02;99808.00;;;13.70
6454;BMP180;3260;52.438;13.502;2023-11-19T11:51:58;99813.00;;;14.70
6454;BMP180;3260;52.438;13.502;2023-11-19T11:54:27;99807.00;;;15.00
6454;BMP180;3260;52.438;13.502;2023-11-19T11:57:06;99805.00;;;15.90
6454;BMP180;3260;52.438;13.502;2023-11-19T11:59:47;99812.00;;;15.50
6454;BMP180;3260;52.438;13.502;2023-11-19T12:02:16;99804.00;;;15.90
6454;BMP180;3260;52.438;13.502;2023-11-19T12:04:48;99802.00;;;16.20
6454;BMP180;3260;52.438;13.502;2023-11-19T12:07:19;99797.00;;;15.20
6454;BMP180;3260;52.438;13.502;2023-11-19T12:09:50;99801.00;;;14.70
6454;BMP180;3260;52.438;13.502;2023-11-19T12:12:21;99791.00;;;14.50
6454;BMP180;3260;52.438;13.502;2023-11-19T12:17:43;99800.00;;;13.70
6454;BMP180;3260;52.438;13.502;2023-11-19T12:20:17;99797.00;;;13.00
6454;BMP180;3260;52.438;13.502;2023-11-19T12:23:04;99793.00;;;13.10
6454;BMP180;3260;52.438;13.502;2023-11-19T12:25:34;99826.00;;;12.90
6454;BMP180;3260;52.438;13.502;2023-11-19T12:28:03;99794.00;;;12.80
6454;BMP180;3260;52.438;13.502;2023-11-19T12:30:32;99804.00;;;12.80
6454;BMP180;3260;52.438;13.502;2023-11-19T12:33:07;99792.00;;;12.70
6454;BMP180;3260;52.438;13.502;2023-11-19T12:35:38;99801.00;;;12.80
6454;BMP180;3260;52.438;13.502;2023-11-19T12:38:08;99795.00;;;12.60
6454;BMP180;3260;52.438;13.502;2023-11-19T12:40:46;99794.00;;;12.50
6454;BMP180;3260;52.438;13.502;2023-11-19T12:43:20;99796.00;;;12.30
6454;BMP180;3260;52.438;13.502;2023-11-19T12:45:49;99810.00;;;12.30
6454;BMP180;3260;52.438;13.502;2023-11-19T12:48:17;99789.00;;;12.00
6454;BMP180;3260;52.438;13.502;2023-11-19T12:50:52;99785.00;;;11.90
6454;BMP180;3260;52.438;13.502;2023-11-19T12:53:23;99781.00;;;11.90
6454;BMP180;3260;52.438;13.502;2023-11-19T12:55:52;99800.00;;;11.80
6454;BMP180;3260;52.438;13.502;2023-11-19T12:58:29;99800.00;;;11.80
6454;BMP180;3260;52.438;13.502;2023-11-19T13:01:01;99796.00;;;12.00
6454;BMP180;3260;52.438;13.502;2023-11-19T13:03:30;99786.00;;;12.00
6454;BMP180;3260;52.438;13.502;2023-11-19T13:06:03;99797.00;;;11.90
6454;BMP180;3260;52.438;13.502;2023-11-19T13:08:37;99798.00;;;11.90
6454;BMP180;3260;52.438;13.502;2023-11-19T13:11:06;99799.00;;;12.00
6454;BMP180;3260;52.438;13.502;2023-11-19T13:13:54;99823.00;;;12.00
6454;BMP180;3260;52.438;13.502;2023-11-19T13:16:23;99799.00;;;12.10
6454;BMP180;3260;52.438;13.502;2023-11-19T13:18:51;99794.00;;;12.20
6454;BMP180;3260;52.438;13.502;2023-11-19T13:21:20;99798.00;;;12.20
6454;BMP180;3260;52.438;13.502;2023-11-19T13:23:50;99793.00;;;12.20
6454;BMP180;3260;52.438;13.502;2023-11-19T13:26:19;99788.00;;;12.50
6454;BMP180;3260;52.438;13.502;2023-11-19T13:28:47;99790.00;;;13.60
6454;BMP180;3260;52.438;13.502;2023-11-19T13:31:16;99787.00;;;14.50
6454;BMP180;3260;52.438;13.502;2023-11-19T13:33:45;99790.00;;;15.40
6454;BMP180;3260;52.438;13.502;2023-11-19T13:36:14;99788.00;;;15.40
6454;BMP180;3260;52.438;13.502;2023-11-19T13:38:43;99793.00;;;15.20
6454;BMP180;3260;52.438;13.502;2023-11-19T13:41:14;99793.00;;;14.50
6454;BMP180;3260;52.438;13.502;2023-11-19T13:43:42;99789.00;;;14.30
6454;BMP180;3260;52.438;13.502;2023-11-19T13:46:11;99796.00;;;13.80
6454;BMP180;3260;52.438;13.502;2023-11-19T13:48:40;99802.00;;;13.10
6454;BMP180;3260;52.438;13.502;2023-11-19T13:51:08;99796.00;;;12.70
6454;BMP180;3260;52.438;13.502;2023-11-19T13:53:37;99795.00;;;12.60
6454;BMP180;3260;52.438;13.502;2023-11-19T13:56:09;99795.00;;;12.70
6454;BMP180;3260;52.438;13.502;2023-11-19T13:58:39;99792.00;;;12.60
6454;BMP180;3260;52.438;13.502;2023-11-19T14:01:08;99803.00;;;12.40
6454;BMP180;3260;52.438;13.502;2023-11-19T14:03:36;99798.00;;;12.20
6454;BMP180;3260;52.438;13.502;2023-11-19T14:06:05;99794.00;;;12.20
6454;BMP180;3260;52.438;13.502;2023-11-19T14:08:35;99803.00;;;12.50
6454;BMP180;3260;52.438;13.502;2023-11-19T14:11:05;99798.00;;;12.20
6454;BMP180;3260;52.438;13.502;2023-11-19T14:13:34;99798.00;;;12.20
6454;BMP180;3260;52.438;13.502;2023-11-19T14:16:04;99798.00;;;12.10
6454;BMP180;3260;52.438;13.502;2023-11-19T14:18:36;99804.00;;;12.10
6454;BMP180;3260;52.438;13.502;2023-11-19T14:21:05;99803.00;;;12.10
6454;BMP180;3260;52.438;13.502;2023-11-19T14:23:34;99801.00;;;12.20
6454;BMP180;3260;52.438;13.502;2023-11-19T14:26:03;99794.00;;;12.40
6454;BMP180;3260;52.438;13.502;2023-11-19T14:28:31;99806.00;;;12.10
6454;BMP180;3260;52.438;13.502;2023-11-19T14:31:00;99820.00;;;12.10
6454;BMP180;3260;52.438;13.502;2023-11-19T14:33:30;99803.00;;;12.00
6454;BMP180;3260;52.438;13.502;2023-11-19T14:35:59;99801.00;;;12.00
6454;BMP180;3260;52.438;13.502;2023-11-19T14:38:27;99806.00;;;11.90
6454;BMP180;3260;52.438;13.502;2023-11-19T14:40:56;99803.00;;;11.90
6454;BMP180;3260;52.438;13.502;2023-11-19T14:43:26;99810.00;;;11.90
6454;BMP180;3260;52.438;13.502;2023-11-19T14:45:54;99806.00;;;11.90
6454;BMP180;3260;52.438;13.502;2023-11-19T14:48:24;99813.00;;;12.00
6454;BMP180;3260;52.438;13.502;2023-11-19T14:50:53;99813.00;;;12.00
6454;BMP180;3260;52.438;13.502;2023-11-19T14:53:22;99813.00;;;11.80
6454;BMP180;3260;52.438;13.502;2023-11-19T14:55:50;99820.00;;;11.90
6454;BMP180;3260;52.438;13.502;2023-11-19T14:58:19;99826.00;;;11.90
6454;BMP180;3260;52.438;13.502;2023-11-19T15:00:47;99832.00;;;12.00
6454;BMP180;3260;52.438;13.502;2023-11-19T15:03:16;99829.00;;;11.90
6454;BMP180;3260;52.438;13.502;2023-11-19T15:05:46;99835.00;;;11.80
6454;BMP180;3260;52.438;13.502;2023-11-19T15:08:16;99825.00;;;11.70
6454;BMP180;3260;52.438;13.502;2023-11-19T15:10:44;99830.00;;;11.60
6454;BMP180;3260;52.438;13.502;2023-11-19T15:13:14;99829.00;;;11.70
6454;BMP180;3260;52.438;13.502;2023-11-19T15:15:42;99832.00;;;11.80
6454;BMP180;3260;52.438;13.502;2023-11-19T15:18:10;99830.00;;;11.50
6454;BMP180;3260;52.438;13.502;2023-11-19T15:20:39;99828.00;;;11.50
6454;BMP180;3260;52.438;13.502;2023-11-19T15:23:07;99834.00;;;11.30
6454;BMP180;3260;52.438;13.502;2023-11-19T15:25:38;99823.00;;;11.40
6454;BMP180;3260;52.438;13.502;2023-11-19T15:28:06;99818.00;;;11.30
6454;BMP180;3260;52.438;13.502;2023-11-19T15:30:35;99834.00;;;11.20
6454;BMP180;3260;52.438;13.502;2023-11-19T15:33:03;99832.00;;;10.90
6454;BMP180;3260;52.438;13.502;2023-11-19T15:35:32;99838.00;;;11.10
6454;BMP180;3260;52.438;13.502;2023-11-19T15:38:00;99836.00;;;11.10
6454;BMP180;3260;52.438;13.502;2023-11-19T15:40:29;99837.00;;;11.00
6454;BMP180;3260;52.438;13.502;2023-11-19T15:42:59;99834.00;;;11.30
6454;BMP180;3260;52.438;13.502;2023-11-19T15:45:28;99832.00;;;11.20
6454;BMP180;3260;52.438;13.502;2023-11-19T15:47:56;99841.00;;;11.30
6454;BMP180;3260;52.438;13.502;2023-11-19T15:50:25;99843.00;;;11.20
6454;BMP180;3260;52.438;13.502;2023-11-19T15:52:56;99841.00;;;11.30
6454;BMP180;3260;52.438;13.502;2023-11-19T15:55:26;99843.00;;;11.30
6454;BMP180;3260;52.438;13.502;2023-11-19T15:57:54;99847.00;;;11.40
6454;BMP180;3260;52.438;13.502;2023-11-19T16:00:24;99847.00;;;11.40
6454;BMP180;3260;52.438;13.502;2023-11-19T16:02:53;99843.00;;;11.50
6454;BMP180;3260;52.438;13.502;2023-11-19T16:05:22;99846.00;;;11.30
6454;BMP180;3260;52.438;13.502;2023-11-19T16:07:51;99851.00;;;11.40
6454;BMP180;3260;52.438;13.502;2023-11-19T16:10:20;99865.00;;;11.30
6454;BMP180;3260;52.438;13.502;2023-11-19T16:12:52;99850.00;;;11.30
6454;BMP180;3260;52.438;13.502;2023-11-19T16:15:21;99847.00;;;11.30
6454;BMP180;3260;52.438;13.502;2023-11-19T16:17:53;99847.00;;;11.20
6454;BMP180;3260;52.438;13.502;2023-11-19T16:20:24;99854.00;;;11.20
6454;BMP180;3260;52.438;13.502;2023-11-19T16:22:53;99855.00;;;11.10
6454;BMP180;3260;52.438;13.502;2023-11-19T16:25:22;99873.00;;;11.10
6454;BMP180;3260;52.438;13.502;2023-11-19T16:27:50;99846.00;;;11.10
6454;BMP180;3260;52.438;13.502;2023-11-19T16:30:19;99851.00;;;11.20
6454;BMP180;3260;52.438;13.502;2023-11-19T16:32:51;99849.00;;;11.20
6454;BMP180;3260;52.438;13.502;2023-11-19T16:35:22;99866.00;;;11.30
6454;BMP180;3260;52.438;13.502;2023-11-19T16:37:51;99861.00;;;11.30
6454;BMP180;3260;52.438;13.502;2023-11-19T16:40:19;99858.00;;;11.50
6454;BMP180;3260;52.438;13.502;2023-11-19T16:42:50;99862.00;;;11.40
6454;BMP180;3260;52.438;13.502;2023-11-19T16:45:19;99866.00;;;11.40
6454;BMP180;3260;52.438;13.502;2023-11-19T16:47:47;99862.00;;;11.30
6454;BMP180;3260;52.438;13.502;2023-11-19T16:50:16;99862.00;;;11.60
6454;BMP180;3260;52.438;13.502;2023-11-19T16:52:47;99872.00;;;11.50
6454;BMP180;3260;52.438;13.502;2023-11-19T16:55:15;99877.00;;;11.50
6454;BMP180;3260;52.438;13.502;2023-11-19T16:57:44;99883.00;;;11.40
6454;BMP180;3260;52.438;13.502;2023-11-19T17:00:12;99886.00;;;11.10
6454;BMP180;3260;52.438;13.502;2023-11-19T17:02:41;99878.00;;;11.00
6454;BMP180;3260;52.438;13.502;2023-11-19T17:05:13;99872.00;;;10.80
6454;BMP180;3260;52.438;13.502;2023-11-19T17:07:42;99865.00;;;10.70
6454;BMP180;3260;52.438;13.502;2023-11-19T17:10:11;99862.00;;;10.80
6454;BMP180;3260;52.438;13.502;2023-11-19T17:12:40;99873.00;;;10.70
6454;BMP180;3260;52.438;13.502;2023-11-19T17:15:09;99869.00;;;10.50
6454;BMP180;3260;52.438;13.502;2023-11-19T17:17:38;99868.00;;;10.50
6454;BMP180;3260;52.438;13.502;2023-11-19T17:20:07;99878.00;;;10.40
6454;BMP180;3260;52.438;13.502;2023-11-19T17:22:37;99868.00;;;10.40
6454;BMP180;3260;52.438;13.502;2023-11-19T17:25:07;99877.00;;;10.40
6454;BMP180;3260;52.438;13.502;2023-11-19T17:27:38;99875.00;;;10.40
6454;BMP180;3260;52.438;13.502;2023-11-19T17:30:07;99872.00;;;10.30
6454;BMP180;3260;52.438;13.502;2023-11-19T17:32:36;99861.00;;;10.40
6454;BMP180;3260;52.438;13.502;2023-11-19T17:35:05;99865.00;;;10.30
6454;BMP180;3260;52.438;13.502;2023-11-19T17:37:34;99863.00;;;10.40
6454;BMP180;3260;52.438;13.502;2023-11-19T17:40:02;99862.00;;;10.40
6454;BMP180;3260;52.438;13.502;2023-11-19T17:42:31;99850.00;;;10.40
6454;BMP180;3260;52.438;13.502;2023-11-19T17:45:02;99863.00;;;10.40
6454;BMP180;3260;52.438;13.502;2023-11-19T17:47:32;99871.00;;;10.60
6454;BMP180;3260;52.438;13.502;2023-11-19T17:50:01;99866.00;;;10.50
6454;BMP180;3260;52.438;13.502;2023-11-19T17:52:51;99863.00;;;10.30
6454;BMP180;3260;52.438;13.502;2023-11-19T17:55:21;99866.00;;;10.40
6454;BMP180;3260;52.438;13.502;2023-11-19T17:57:49;99870.00;;;10.50
6454;BMP180;3260;52.438;13.502;2023-11-19T18:00:19;99886.00;;;10.30
6454;BMP180;3260;52.438;13.502;2023-11-19T18:02:49;99882.00;;;10.50
6454;BMP180;3260;52.438;13.502;2023-11-19T18:05:19;99895.00;;;10.40
6454;BMP180;3260;52.438;13.502;2023-11-19T18:07:48;99894.00;;;10.40
6454;BMP180;3260;52.438;13.502;2023-11-19T18:10:17;99891.00;;;10.40
6454;BMP180;3260;52.438;13.502;2023-11-19T18:12:45;99889.00;;;10.30
6454;BMP180;3260;52.438;13.502;2023-11-19T18:15:14;99898.00;;;10.40
6454;BMP180;3260;52.438;13.502;2023-11-19T18:17:44;99895.00;;;10.40
6454;BMP180;3260;52.438;13.502;2023-11-19T18:20:13;99894.00;;;10.60
6454;BMP180;3260;52.438;13.502;2023-11-19T18:22:43;99892.00;;;10.40
6454;BMP180;3260;52.438;13.502;2023-11-19T18:25:13;99888.00;;;10.40
6454;BMP180;3260;52.438;13.502;2023-11-19T18:27:44;99887.00;;;10.20
6454;BMP180;3260;52.438;13.502;2023-11-19T18:30:13;99903.00;;;10.20
6454;BMP180;3260;52.438;13.502;2023-11-19T18:32:43;99897.00;;;10.20
6454;BMP180;3260;52.438;13.502;2023-11-19T18:35:13;99886.00;;;10.20
6454;BMP180;3260;52.438;13.502;2023-11-19T18:37:49;99883.00;;;10.20
6454;BMP180;3260;52.438;13.502;2023-11-19T18:40:18;99891.00;;;10.20
6454;BMP180;3260;52.438;13.502;2023-11-19T18:42:48;99873.00;;;10.20
6454;BMP180;3260;52.438;13.502;2023-11-19T18:45:21;99872.00;;;10.20
6454;BMP180;3260;52.438;13.502;2023-11-19T18:47:51;99870.00;;;10.10
6454;BMP180;3260;52.438;13.502;2023-11-19T18:50:20;99875.00;;;10.00
6454;BMP180;3260;52.438;13.502;2023-11-19T18:52:49;99874.00;;;10.00
6454;BMP180;3260;52.438;13.502;2023-11-19T18:55:18;99872.00;;;10.00
6454;BMP180;3260;52.438;13.502;2023-11-19T18:57:46;99873.00;;;10.00
6454;BMP180;3260;52.438;13.502;2023-11-19T19:00:16;99882.00;;;10.10
6454;BMP180;3260;52.438;13.502;2023-11-19T19:02:44;99885.00;;;9.80
6454;BMP180;3260;52.438;13.502;2023-11-19T19:05:20;99882.00;;;9.90
6454;BMP180;3260;52.438;13.502;2023-11-19T19:07:49;99881.00;;;9.90
6454;BMP180;3260;52.438;13.502;2023-11-19T19:10:19;99886.00;;;9.90
6454;BMP180;3260;52.438;13.502;2023-11-19T19:12:48;99884.00;;;9.90
6454;BMP180;3260;52.438;13.502;2023-11-19T19:15:16;99884.00;;;10.00
6454;BMP180;3260;52.438;13.502;2023-11-19T19:17:45;99883.00;;;9.80
6454;BMP180;3260;52.438;13.502;2023-11-19T19:20:15;99888.00;;;9.80
6454;BMP180;3260;52.438;13.502;2023-11-19T19:22:45;99903.00;;;9.90
6454;BMP180;3260;52.438;13.502;2023-11-19T19:25:15;99892.00;;;9.80
6454;BMP180;3260;52.438;13.502;2023-11-19T19:27:43;99886.00;;;9.80
6454;BMP180;3260;52.438;13.502;2023-11-19T19:30:12;99883.00;;;9.90
6454;BMP180;3260;52.438;13.502;2023-11-19T19:32:41;99889.00;;;9.90
6454;BMP180;3260;52.438;13.502;2023-11-19T19:35:11;99879.00;;;10.00
6454;BMP180;3260;52.438;13.502;2023-11-19T19:37:40;99884.00;;;10.10
6454;BMP180;3260;52.438;13.502;2023-11-19T19:40:10;99894.00;;;10.00
6454;BMP180;3260;52.438;13.502;2023-11-19T19:42:42;99888.00;;;9.90
6454;BMP180;3260;52.438;13.502;2023-11-19T19:45:11;99892.00;;;9.90
6454;BMP180;3260;52.438;13.502;2023-11-19T19:47:40;99901.00;;;9.90
6454;BMP180;3260;52.438;13.502;2023-11-19T19:50:09;99905.00;;;10.00
6454;BMP180;3260;52.438;13.502;2023-11-19T19:52:38;99895.00;;;10.00
6454;BMP180;3260;52.438;13.502;2023-11-19T19:55:09;99895.00;;;10.00
6454;BMP180;3260;52.438;13.502;2023-11-19T19:57:39;99898.00;;;10.10
6454;BMP180;3260;52.438;13.502;2023-11-19T20:00:08;99896.00;;;10.00
6454;BMP180;3260;52.438;13.502;2023-11-19T20:02:41;99888.00;;;10.00
6454;BMP180;3260;52.438;13.502;2023-11-19T20:05:11;99884.00;;;10.10
6454;BMP180;3260;52.438;13.502;2023-11-19T20:07:40;99885.00;;;10.30
6454;BMP180;3260;52.438;13.502;2023-11-19T20:10:10;99892.00;;;10.00
6454;BMP180;3260;52.438;13.502;2023-11-19T20:12:40;99887.00;;;10.00
6454;BMP180;3260;52.438;13.502;2023-11-19T20:15:09;99889.00;;;10.00
6454;BMP180;3260;52.438;13.502;2023-11-19T20:17:39;99895.00;;;10.00
6454;BMP180;3260;52.438;13.502;2023-11-19T20:20:08;99892.00;;;10.00
6454;BMP180;3260;52.438;13.502;2023-11-19T20:22:40;99902.00;;;10.00
6454;BMP180;3260;52.438;13.502;2023-11-19T20:25:09;99897.00;;;10.00
6454;BMP180;3260;52.438;13.502;2023-11-19T20:27:38;99898.00;;;10.00
6454;BMP180;3260;52.438;13.502;2023-11-19T20:30:08;99899.00;;;10.00
6454;BMP180;3260;52.438;13.502;2023-11-19T20:32:36;99898.00;;;10.00
6454;BMP180;3260;52.438;13.502;2023-11-19T20:35:05;99901.00;;;10.00
6454;BMP180;3260;52.438;13.502;2023-11-19T20:37:34;99904.00;;;10.10
6454;BMP180;3260;52.438;13.502;2023-11-19T20:40:04;99897.00;;;9.90
6454;BMP180;3260;52.438;13.502;2023-11-19T20:42:35;99898.00;;;9.90
6454;BMP180;3260;52.438;13.502;2023-11-19T20:45:06;99918.00;;;9.90
6454;BMP180;3260;52.438;13.502;2023-11-19T20:47:36;99911.00;;;10.10
6454;BMP180;3260;52.438;13.502;2023-11-19T20:50:05;99907.00;;;10.30
6454;BMP180;3260;52.438;13.502;2023-11-19T20:52:34;99909.00;;;10.10
6454;BMP180;3260;52.438;13.502;2023-11-19T20:55:04;99910.00;;;10.00
6454;BMP180;3260;52.438;13.502;2023-11-19T20:57:35;99911.00;;;9.90
6454;BMP180;3260;52.438;13.502;2023-11-19T21:00:04;99902.00;;;9.90
6454;BMP180;3260;52.438;13.502;2023-11-19T21:02:34;99916.00;;;9.90
6454;BMP180;3260;52.438;13.502;2023-11-19T21:05:03;99909.00;;;9.90
6454;BMP180;3260;52.438;13.502;2023-11-19T21:07:31;99910.00;;;9.90
6454;BMP180;3260;52.438;13.502;2023-11-19T21:10:00;99914.00;;;9.70
6454;BMP180;3260;52.438;13.502;2023-11-19T21:12:29;99912.00;;;9.90
6454;BMP180;3260;52.438;13.502;2023-11-19T21:14:59;99904.00;;;9.80
6454;BMP180;3260;52.438;13.502;2023-11-19T21:17:27;99908.00;;;9.80
6454;BMP180;3260;52.438;13.502;2023-11-19T21:19:56;99913.00;;;9.70
6454;BMP180;3260;52.438;13.502;2023-11-19T21:22:25;99912.00;;;9.60
6454;BMP180;3260;52.438;13.502;2023-11-19T21:24:54;99917.00;;;9.70
6454;BMP180;3260;52.438;13.502;2023-11-19T21:27:23;99924.00;;;9.50
6454;BMP180;3260;52.438;13.502;2023-11-19T21:29:53;99911.00;;;9.70
6454;BMP180;3260;52.438;13.502;2023-11-19T21:32:23;99907.00;;;9.60
6454;BMP180;3260;52.438;13.502;2023-11-19T21:34:52;99904.00;;;9.50
6454;BMP180;3260;52.438;13.502;2023-11-19T21:37:20;99901.00;;;9.50
6454;BMP180;3260;52.438;13.502;2023-11-19T21:39:48;99901.00;;;9.40
6454;BMP180;3260;52.438;13.502;2023-11-19T21:42:17;99909.00;;;9.40
6454;BMP180;3260;52.438;13.502;2023-11-19T21:44:45;99900.00;;;9.60
6454;BMP180;3260;52.438;13.502;2023-11-19T21:47:14;99912.00;;;9.50
6454;BMP180;3260;52.438;13.502;2023-11-19T21:49:44;99918.00;;;9.50
6454;BMP180;3260;52.438;13.502;2023-11-19T21:52:12;99898.00;;;9.50
6454;BMP180;3260;52.438;13.502;2023-11-19T21:54:41;99902.00;;;9.50
6454;BMP180;3260;52.438;13.502;2023-11-19T21:57:09;99902.00;;;9.60
6454;BMP180;3260;52.438;13.502;2023-11-19T21:59:38;99913.00;;;9.70
